Terminal Aerodrome Forecast
Issued by NWS Sioux Falls, SD

Home | Current Version | Previous Version | Graphics & Text | Print | Product List | Glossary On
Versions: 1 2 3 4 5 6 7 8 9 10 11 12
000
FTUS43 KFSD 221720
TAFFSD
TAF
KFSD 221720Z 2218/2318 03012KT P6SM BKN080
     FM222000 03011KT P6SM VCTS BKN050CB
     FM222100 03010KT P6SM -SHRA BKN070
     FM222300 01008KT P6SM SCT100
     FM230300 31004KT P6SM FEW250
     FM231400 31014G21KT P6SM SCT070=

USA.gov is the U.S. government's official web portal to all federal, state and local government web resources and services.